sensor_id;sensor_type;location;lat;lon;timestamp;temperature;humidity
51914;DHT22;37940;53.002;6.930;2023-02-27T00:02:19;-2.30;99.90
51914;DHT22;37940;53.002;6.930;2023-02-27T00:04:45;-2.30;99.90
51914;DHT22;37940;53.002;6.930;2023-02-27T00:07:11;-2.20;99.90
51914;DHT22;37940;53.002;6.930;2023-02-27T00:09:37;-2.20;99.90
51914;DHT22;37940;53.002;6.930;2023-02-27T00:12:04;-1.70;99.90
51914;DHT22;37940;53.002;6.930;2023-02-27T00:14:30;-2.10;99.90
51914;DHT22;37940;53.002;6.930;2023-02-27T00:16:56;-1.30;99.90
51914;DHT22;37940;53.002;6.930;2023-02-27T00:19:22;-2.10;99.90
51914;DHT22;37940;53.002;6.930;2023-02-27T00:21:48;-2.10;99.90
51914;DHT22;37940;53.002;6.930;2023-02-27T00:24:13;-2.10;99.90
51914;DHT22;37940;53.002;6.930;2023-02-27T00:26:39;-2.10;99.90
51914;DHT22;37940;53.002;6.930;2023-02-27T00:29:05;-2.20;99.90
51914;DHT22;37940;53.002;6.930;2023-02-27T00:31:31;-2.10;99.90
51914;DHT22;37940;53.002;6.930;2023-02-27T00:33:57;-2.10;99.90
51914;DHT22;37940;53.002;6.930;2023-02-27T00:36:23;-2.30;99.90
51914;DHT22;37940;53.002;6.930;2023-02-27T00:38:49;-2.30;99.90
51914;DHT22;37940;53.002;6.930;2023-02-27T00:41:15;-2.40;99.90
51914;DHT22;37940;53.002;6.930;2023-02-27T00:43:40;-2.40;99.90
51914;DHT22;37940;53.002;6.930;2023-02-27T00:46:06;-2.40;99.90
51914;DHT22;37940;53.002;6.930;2023-02-27T00:48:32;-2.50;99.90
51914;DHT22;37940;53.002;6.930;2023-02-27T00:50:58;-2.20;99.90
51914;DHT22;37940;53.002;6.930;2023-02-27T00:53:23;-2.60;99.90
51914;DHT22;37940;53.002;6.930;2023-02-27T00:55:49;-2.10;99.90
51914;DHT22;37940;53.002;6.930;2023-02-27T00:58:15;-2.60;99.90
51914;DHT22;37940;53.002;6.930;2023-02-27T01:00:41;-2.60;99.90
51914;DHT22;37940;53.002;6.930;2023-02-27T01:03:07;-2.70;99.90
51914;DHT22;37940;53.002;6.930;2023-02-27T01:05:33;-2.70;99.90
51914;DHT22;37940;53.002;6.930;2023-02-27T01:07:59;-2.70;99.90
51914;DHT22;37940;53.002;6.930;2023-02-27T01:10:24;-2.80;99.90
51914;DHT22;37940;53.002;6.930;2023-02-27T01:12:51;-2.80;99.90
51914;DHT22;37940;53.002;6.930;2023-02-27T01:15:16;-2.20;99.90
51914;DHT22;37940;53.002;6.930;2023-02-27T01:17:42;-2.80;99.90
51914;DHT22;37940;53.002;6.930;2023-02-27T01:20:10;-2.90;99.90
51914;DHT22;37940;53.002;6.930;2023-02-27T01:22:37;-2.90;99.90
51914;DHT22;37940;53.002;6.930;2023-02-27T01:25:03;-2.70;99.90
51914;DHT22;37940;53.002;6.930;2023-02-27T01:27:29;-2.90;99.90
51914;DHT22;37940;53.002;6.930;2023-02-27T01:29:55;-2.90;99.90
51914;DHT22;37940;53.002;6.930;2023-02-27T01:32:21;-3.00;99.90
51914;DHT22;37940;53.002;6.930;2023-02-27T01:34:47;-3.00;99.90
51914;DHT22;37940;53.002;6.930;2023-02-27T01:37:12;-3.00;99.90
51914;DHT22;37940;53.002;6.930;2023-02-27T01:39:38;-2.50;99.90
51914;DHT22;37940;53.002;6.930;2023-02-27T01:42:09;-3.00;99.90
51914;DHT22;37940;53.002;6.930;2023-02-27T01:47:26;-3.10;99.90
51914;DHT22;37940;53.002;6.930;2023-02-27T01:49:51;-2.40;99.90
51914;DHT22;37940;53.002;6.930;2023-02-27T01:52:17;-2.50;99.90
51914;DHT22;37940;53.002;6.930;2023-02-27T01:54:43;-3.20;99.90
51914;DHT22;37940;53.002;6.930;2023-02-27T01:57:09;-3.20;99.90
51914;DHT22;37940;53.002;6.930;2023-02-27T01:59:36;-3.20;99.90
51914;DHT22;37940;53.002;6.930;2023-02-27T02:02:07;-3.10;99.90
51914;DHT22;37940;53.002;6.930;2023-02-27T02:04:35;-3.20;99.90
51914;DHT22;37940;53.002;6.930;2023-02-27T02:07:05;-3.20;99.90
51914;DHT22;37940;53.002;6.930;2023-02-27T02:09:34;-3.10;99.90
51914;DHT22;37940;53.002;6.930;2023-02-27T02:12:03;-3.20;99.90
51914;DHT22;37940;53.002;6.930;2023-02-27T02:14:29;-3.10;99.90
51914;DHT22;37940;53.002;6.930;2023-02-27T02:36:50;-3.40;99.90
51914;DHT22;37940;53.002;6.930;2023-02-27T02:42:03;-3.50;99.90
51914;DHT22;37940;53.002;6.930;2023-02-27T02:49:55;-3.50;99.90
51914;DHT22;37940;53.002;6.930;2023-02-27T03:00:35;-2.60;99.90
51914;DHT22;37940;53.002;6.930;2023-02-27T03:03:42;-3.20;99.90
51914;DHT22;37940;53.002;6.930;2023-02-27T03:06:16;-3.60;99.90
51914;DHT22;37940;53.002;6.930;2023-02-27T03:08:50;-3.60;99.90
51914;DHT22;37940;53.002;6.930;2023-02-27T03:11:20;-3.60;99.90
51914;DHT22;37940;53.002;6.930;2023-02-27T03:13:55;-3.60;99.90
51914;DHT22;37940;53.002;6.930;2023-02-27T03:16:39;-3.60;99.90
51914;DHT22;37940;53.002;6.930;2023-02-27T03:19:14;-2.80;99.90
51914;DHT22;37940;53.002;6.930;2023-02-27T03:21:47;-3.60;99.90
51914;DHT22;37940;53.002;6.930;2023-02-27T03:24:29;-3.10;99.90
51914;DHT22;37940;53.002;6.930;2023-02-27T03:26:57;-3.70;99.90
51914;DHT22;37940;53.002;6.930;2023-02-27T03:29:41;-3.40;99.90
51914;DHT22;37940;53.002;6.930;2023-02-27T03:32:23;-3.70;99.90
51914;DHT22;37940;53.002;6.930;2023-02-27T03:34:49;-3.70;99.90
51914;DHT22;37940;53.002;6.930;2023-02-27T03:42:41;-3.80;99.90
51914;DHT22;37940;53.002;6.930;2023-02-27T03:47:56;-2.40;99.90
51914;DHT22;37940;53.002;6.930;2023-02-27T03:50:22;-3.80;99.90
51914;DHT22;37940;53.002;6.930;2023-02-27T03:52:49;-3.80;99.90
51914;DHT22;37940;53.002;6.930;2023-02-27T03:55:25;-3.90;99.90
51914;DHT22;37940;53.002;6.930;2023-02-27T03:57:52;-3.90;99.90
51914;DHT22;37940;53.002;6.930;2023-02-27T04:00:21;-3.90;99.90
51914;DHT22;37940;53.002;6.930;2023-02-27T04:02:49;-2.50;99.90
51914;DHT22;37940;53.002;6.930;2023-02-27T04:05:17;-3.90;99.90
51914;DHT22;37940;53.002;6.930;2023-02-27T04:14:05;-3.90;99.90
51914;DHT22;37940;53.002;6.930;2023-02-27T04:17:00;-3.80;99.90
51914;DHT22;37940;53.002;6.930;2023-02-27T04:22:22;-3.70;99.90
51914;DHT22;37940;53.002;6.930;2023-02-27T04:25:21;-3.70;99.90
51914;DHT22;37940;53.002;6.930;2023-02-27T04:28:04;-3.70;99.90
51914;DHT22;37940;53.002;6.930;2023-02-27T04:39:07;-3.70;99.90
51914;DHT22;37940;53.002;6.930;2023-02-27T04:41:47;-3.60;99.90
51914;DHT22;37940;53.002;6.930;2023-02-27T04:44:15;-3.70;99.90
51914;DHT22;37940;53.002;6.930;2023-02-27T04:46:43;-3.70;99.90
51914;DHT22;37940;53.002;6.930;2023-02-27T04:49:18;-3.70;99.90
51914;DHT22;37940;53.002;6.930;2023-02-27T04:51:54;-3.70;99.90
51914;DHT22;37940;53.002;6.930;2023-02-27T04:57:24;-3.80;99.90
51914;DHT22;37940;53.002;6.930;2023-02-27T04:59:53;-3.80;99.90
51914;DHT22;37940;53.002;6.930;2023-02-27T05:02:30;-3.80;99.90
51914;DHT22;37940;53.002;6.930;2023-02-27T05:05:00;-3.80;99.90
51914;DHT22;37940;53.002;6.930;2023-02-27T05:07:37;-3.00;99.90
51914;DHT22;37940;53.002;6.930;2023-02-27T05:10:07;-3.90;99.90
51914;DHT22;37940;53.002;6.930;2023-02-27T05:12:41;-3.90;99.90
51914;DHT22;37940;53.002;6.930;2023-02-27T05:18:38;-4.00;99.90
51914;DHT22;37940;53.002;6.930;2023-02-27T05:23:42;-4.00;99.90
51914;DHT22;37940;53.002;6.930;2023-02-27T05:26:31;-4.10;99.90
51914;DHT22;37940;53.002;6.930;2023-02-27T05:34:22;-2.80;99.90
51914;DHT22;37940;53.002;6.930;2023-02-27T05:39:26;-4.20;99.90
51914;DHT22;37940;53.002;6.930;2023-02-27T05:44:45;-4.20;99.90
51914;DHT22;37940;53.002;6.930;2023-02-27T05:47:24;-4.20;99.90
51914;DHT22;37940;53.002;6.930;2023-02-27T05:50:14;-4.20;99.90
51914;DHT22;37940;53.002;6.930;2023-02-27T05:52:42;-4.10;99.90
51914;DHT22;37940;53.002;6.930;2023-02-27T05:55:22;-3.20;99.90
51914;DHT22;37940;53.002;6.930;2023-02-27T05:58:08;-4.10;99.90
51914;DHT22;37940;53.002;6.930;2023-02-27T06:00:40;-3.90;99.90
51914;DHT22;37940;53.002;6.930;2023-02-27T06:03:07;-3.70;99.90
51914;DHT22;37940;53.002;6.930;2023-02-27T06:05:35;-4.00;99.90
51914;DHT22;37940;53.002;6.930;2023-02-27T06:08:01;-4.10;99.90
51914;DHT22;37940;53.002;6.930;2023-02-27T06:10:27;-4.10;99.90
51914;DHT22;37940;53.002;6.930;2023-02-27T06:12:53;-4.10;99.90
51914;DHT22;37940;53.002;6.930;2023-02-27T06:15:19;-4.10;99.90
51914;DHT22;37940;53.002;6.930;2023-02-27T06:17:44;-3.60;99.90
51914;DHT22;37940;53.002;6.930;2023-02-27T06:20:11;-4.00;99.90
51914;DHT22;37940;53.002;6.930;2023-02-27T06:22:37;-4.00;99.90
51914;DHT22;37940;53.002;6.930;2023-02-27T06:25:02;-3.40;99.90
51914;DHT22;37940;53.002;6.930;2023-02-27T06:27:28;-3.90;99.90
51914;DHT22;37940;53.002;6.930;2023-02-27T06:29:54;-2.90;99.90
51914;DHT22;37940;53.002;6.930;2023-02-27T06:32:21;-3.80;99.90
51914;DHT22;37940;53.002;6.930;2023-02-27T06:34:49;-3.70;99.90
51914;DHT22;37940;53.002;6.930;2023-02-27T06:37:15;-3.50;99.90
51914;DHT22;37940;53.002;6.930;2023-02-27T06:39:41;-3.60;99.90
51914;DHT22;37940;53.002;6.930;2023-02-27T06:42:07;-3.50;99.90
51914;DHT22;37940;53.002;6.930;2023-02-27T06:44:33;-3.20;99.90
51914;DHT22;37940;53.002;6.930;2023-02-27T06:46:58;-3.10;99.90
51914;DHT22;37940;53.002;6.930;2023-02-27T06:49:24;-3.20;99.90
51914;DHT22;37940;53.002;6.930;2023-02-27T06:51:50;-3.10;99.90
51914;DHT22;37940;53.002;6.930;2023-02-27T06:54:16;-2.40;99.90
51914;DHT22;37940;53.002;6.930;2023-02-27T06:56:42;-2.10;99.90
51914;DHT22;37940;53.002;6.930;2023-02-27T06:59:08;-2.70;99.90
51914;DHT22;37940;53.002;6.930;2023-02-27T07:01:37;-2.70;99.90
51914;DHT22;37940;53.002;6.930;2023-02-27T07:04:03;-2.60;99.90
51914;DHT22;37940;53.002;6.930;2023-02-27T07:06:29;-2.50;99.90
51914;DHT22;37940;53.002;6.930;2023-02-27T07:08:54;-1.60;99.90
51914;DHT22;37940;53.002;6.930;2023-02-27T07:11:21;-2.30;99.90
51914;DHT22;37940;53.002;6.930;2023-02-27T07:13:46;-2.20;99.90
51914;DHT22;37940;53.002;6.930;2023-02-27T07:16:12;-1.50;99.90
51914;DHT22;37940;53.002;6.930;2023-02-27T07:18:39;-1.10;99.90
51914;DHT22;37940;53.002;6.930;2023-02-27T07:21:04;-1.90;99.90
51914;DHT22;37940;53.002;6.930;2023-02-27T07:23:30;-1.60;99.90
51914;DHT22;37940;53.002;6.930;2023-02-27T07:25:57;-1.80;99.90
51914;DHT22;37940;53.002;6.930;2023-02-27T07:28:22;-1.70;99.90
51914;DHT22;37940;53.002;6.930;2023-02-27T07:30:48;-1.30;99.90
51914;DHT22;37940;53.002;6.930;2023-02-27T07:33:14;-1.40;99.90
51914;DHT22;37940;53.002;6.930;2023-02-27T07:35:40;-1.20;99.90
51914;DHT22;37940;53.002;6.930;2023-02-27T07:38:06;-1.20;99.90
51914;DHT22;37940;53.002;6.930;2023-02-27T07:40:32;-1.10;99.90
51914;DHT22;37940;53.002;6.930;2023-02-27T07:42:57;-1.10;99.90
51914;DHT22;37940;53.002;6.930;2023-02-27T07:45:23;-1.00;99.90
51914;DHT22;37940;53.002;6.930;2023-02-27T07:47:49;-0.90;99.90
51914;DHT22;37940;53.002;6.930;2023-02-27T07:50:15;-0.80;99.90
51914;DHT22;37940;53.002;6.930;2023-02-27T07:52:42;-0.70;99.90
51914;DHT22;37940;53.002;6.930;2023-02-27T07:55:09;-0.60;99.90
51914;DHT22;37940;53.002;6.930;2023-02-27T07:57:36;-0.50;99.90
51914;DHT22;37940;53.002;6.930;2023-02-27T08:00:06;0.00;99.90
51914;DHT22;37940;53.002;6.930;2023-02-27T08:02:32;-0.30;99.90
51914;DHT22;37940;53.002;6.930;2023-02-27T08:04:58;0.10;99.90
51914;DHT22;37940;53.002;6.930;2023-02-27T08:07:24;-0.10;99.90
51914;DHT22;37940;53.002;6.930;2023-02-27T08:09:50;-0.10;99.90
51914;DHT22;37940;53.002;6.930;2023-02-27T08:12:16;0.50;99.90
51914;DHT22;37940;53.002;6.930;2023-02-27T08:14:41;0.20;99.90
51914;DHT22;37940;53.002;6.930;2023-02-27T08:17:07;0.30;99.90
51914;DHT22;37940;53.002;6.930;2023-02-27T08:19:33;0.70;99.90
51914;DHT22;37940;53.002;6.930;2023-02-27T08:21:59;0.50;99.90
51914;DHT22;37940;53.002;6.930;2023-02-27T08:24:25;0.80;99.90
51914;DHT22;37940;53.002;6.930;2023-02-27T08:26:51;1.40;99.90
51914;DHT22;37940;53.002;6.930;2023-02-27T08:29:17;1.00;99.90
51914;DHT22;37940;53.002;6.930;2023-02-27T08:31:43;1.90;99.90
51914;DHT22;37940;53.002;6.930;2023-02-27T08:34:09;1.20;99.90
51914;DHT22;37940;53.002;6.930;2023-02-27T08:36:35;1.60;99.90
51914;DHT22;37940;53.002;6.930;2023-02-27T08:39:01;1.40;99.90
51914;DHT22;37940;53.002;6.930;2023-02-27T08:41:26;1.50;99.90
51914;DHT22;37940;53.002;6.930;2023-02-27T08:43:52;1.60;99.90
51914;DHT22;37940;53.002;6.930;2023-02-27T08:46:18;1.70;99.90
51914;DHT22;37940;53.002;6.930;2023-02-27T08:48:43;2.10;99.90
51914;DHT22;37940;53.002;6.930;2023-02-27T08:51:09;1.90;99.90
51914;DHT22;37940;53.002;6.930;2023-02-27T08:53:35;2.00;99.90
51914;DHT22;37940;53.002;6.930;2023-02-27T08:56:01;2.10;99.90
51914;DHT22;37940;53.002;6.930;2023-02-27T08:58:27;2.20;99.90
51914;DHT22;37940;53.002;6.930;2023-02-27T09:00:53;2.30;99.90
51914;DHT22;37940;53.002;6.930;2023-02-27T09:03:19;2.40;99.90
51914;DHT22;37940;53.002;6.930;2023-02-27T09:05:48;2.60;99.90
51914;DHT22;37940;53.002;6.930;2023-02-27T09:08:14;2.50;99.90
51914;DHT22;37940;53.002;6.930;2023-02-27T09:10:40;2.70;99.90
51914;DHT22;37940;53.002;6.930;2023-02-27T09:13:06;2.60;99.90
51914;DHT22;37940;53.002;6.930;2023-02-27T09:15:33;2.70;99.90
51914;DHT22;37940;53.002;6.930;2023-02-27T09:18:03;2.80;99.90
51914;DHT22;37940;53.002;6.930;2023-02-27T09:20:35;2.80;99.90
51914;DHT22;37940;53.002;6.930;2023-02-27T09:23:02;3.00;99.90
51914;DHT22;37940;53.002;6.930;2023-02-27T09:25:28;3.10;99.90
51914;DHT22;37940;53.002;6.930;2023-02-27T09:27:54;3.20;99.90
51914;DHT22;37940;53.002;6.930;2023-02-27T09:30:20;3.30;99.90
51914;DHT22;37940;53.002;6.930;2023-02-27T09:32:47;3.40;99.90
51914;DHT22;37940;53.002;6.930;2023-02-27T09:35:12;3.50;99.90
51914;DHT22;37940;53.002;6.930;2023-02-27T09:37:42;3.60;99.90
51914;DHT22;37940;53.002;6.930;2023-02-27T09:40:32;3.70;99.90
51914;DHT22;37940;53.002;6.930;2023-02-27T09:43:10;3.80;99.90
51914;DHT22;37940;53.002;6.930;2023-02-27T09:45:40;4.00;99.90
51914;DHT22;37940;53.002;6.930;2023-02-27T09:48:39;4.00;99.90
51914;DHT22;37940;53.002;6.930;2023-02-27T09:51:07;4.10;99.90
51914;DHT22;37940;53.002;6.930;2023-02-27T09:53:42;4.10;99.90
51914;DHT22;37940;53.002;6.930;2023-02-27T09:56:22;4.20;99.90
51914;DHT22;37940;53.002;6.930;2023-02-27T10:01:39;4.30;99.90
51914;DHT22;37940;53.002;6.930;2023-02-27T10:04:15;4.40;99.90
51914;DHT22;37940;53.002;6.930;2023-02-27T10:17:52;5.00;99.90
51914;DHT22;37940;53.002;6.930;2023-02-27T10:20:26;5.10;99.90
51914;DHT22;37940;53.002;6.930;2023-02-27T10:22:55;5.10;99.90
51914;DHT22;37940;53.002;6.930;2023-02-27T10:25:22;5.20;99.90
51914;DHT22;37940;53.002;6.930;2023-02-27T10:27:49;5.30;99.90
51914;DHT22;37940;53.002;6.930;2023-02-27T10:30:23;5.40;99.90
51914;DHT22;37940;53.002;6.930;2023-02-27T10:32:55;5.50;99.90
51914;DHT22;37940;53.002;6.930;2023-02-27T10:35:25;5.60;99.90
51914;DHT22;37940;53.002;6.930;2023-02-27T10:37:58;5.70;99.90
51914;DHT22;37940;53.002;6.930;2023-02-27T10:40:25;5.80;99.90
51914;DHT22;37940;53.002;6.930;2023-02-27T10:42:53;5.90;99.90
51914;DHT22;37940;53.002;6.930;2023-02-27T10:45:19;6.00;99.90
51914;DHT22;37940;53.002;6.930;2023-02-27T10:47:45;6.10;99.90
51914;DHT22;37940;53.002;6.930;2023-02-27T10:50:27;6.20;99.90
51914;DHT22;37940;53.002;6.930;2023-02-27T10:52:59;6.20;99.90
51914;DHT22;37940;53.002;6.930;2023-02-27T10:55:35;6.30;99.90
51914;DHT22;37940;53.002;6.930;2023-02-27T10:58:02;6.30;99.90
51914;DHT22;37940;53.002;6.930;2023-02-27T11:03:54;6.40;99.90
51914;DHT22;37940;53.002;6.930;2023-02-27T11:06:26;6.30;99.90
51914;DHT22;37940;53.002;6.930;2023-02-27T11:11:47;6.30;99.90
51914;DHT22;37940;53.002;6.930;2023-02-27T11:14:28;6.40;99.90
51914;DHT22;37940;53.002;6.930;2023-02-27T11:16:59;6.40;99.90
51914;DHT22;37940;53.002;6.930;2023-02-27T11:22:13;6.40;99.90
51914;DHT22;37940;53.002;6.930;2023-02-27T11:24:39;6.30;99.90
51914;DHT22;37940;53.002;6.930;2023-02-27T11:27:27;6.30;99.90
51914;DHT22;37940;53.002;6.930;2023-02-27T11:30:04;6.20;99.90
51914;DHT22;37940;53.002;6.930;2023-02-27T11:32:41;6.20;99.90
51914;DHT22;37940;53.002;6.930;2023-02-27T11:38:02;6.20;99.90
51914;DHT22;37940;53.002;6.930;2023-02-27T11:40:55;6.30;99.90
51914;DHT22;37940;53.002;6.930;2023-02-27T11:43:25;6.30;99.90
51914;DHT22;37940;53.002;6.930;2023-02-27T11:46:03;6.30;99.90
51914;DHT22;37940;53.002;6.930;2023-02-27T11:56:55;6.20;99.90
51914;DHT22;37940;53.002;6.930;2023-02-27T12:12:20;6.50;99.90
51914;DHT22;37940;53.002;6.930;2023-02-27T12:17:43;6.50;99.90
51914;DHT22;37940;53.002;6.930;2023-02-27T12:20:27;6.70;99.90
51914;DHT22;37940;53.002;6.930;2023-02-27T12:22:54;6.90;99.90
51914;DHT22;37940;53.002;6.930;2023-02-27T12:25:41;7.00;99.90
51914;DHT22;37940;53.002;6.930;2023-02-27T12:28:22;7.10;99.90
51914;DHT22;37940;53.002;6.930;2023-02-27T12:37:21;7.00;99.90
51914;DHT22;37940;53.002;6.930;2023-02-27T12:39:44;6.80;99.90
51914;DHT22;37940;53.002;6.930;2023-02-27T12:50:37;7.00;99.90
51914;DHT22;37940;53.002;6.930;2023-02-27T12:53:25;7.20;99.90
51914;DHT22;37940;53.002;6.930;2023-02-27T12:56:17;7.50;99.90
51914;DHT22;37940;53.002;6.930;2023-02-27T13:01:44;7.80;99.90
51914;DHT22;37940;53.002;6.930;2023-02-27T13:07:01;7.70;99.90
51914;DHT22;37940;53.002;6.930;2023-02-27T13:12:49;7.40;99.90
51914;DHT22;37940;53.002;6.930;2023-02-27T13:15:29;7.20;99.90
51914;DHT22;37940;53.002;6.930;2023-02-27T13:20:43;7.10;99.90
51914;DHT22;37940;53.002;6.930;2023-02-27T13:23:19;7.00;99.90
51914;DHT22;37940;53.002;6.930;2023-02-27T13:25:50;7.00;99.90
51914;DHT22;37940;53.002;6.930;2023-02-27T13:28:24;7.00;99.90
51914;DHT22;37940;53.002;6.930;2023-02-27T13:33:37;7.20;99.90
51914;DHT22;37940;53.002;6.930;2023-02-27T13:38:51;7.30;99.90
51914;DHT22;37940;53.002;6.930;2023-02-27T13:43:50;7.50;99.90
51914;DHT22;37940;53.002;6.930;2023-02-27T13:46:30;7.40;99.90
51914;DHT22;37940;53.002;6.930;2023-02-27T13:56:45;7.20;99.90
51914;DHT22;37940;53.002;6.930;2023-02-27T14:04:29;7.20;99.90
51914;DHT22;37940;53.002;6.930;2023-02-27T14:07:06;7.30;99.90
51914;DHT22;37940;53.002;6.930;2023-02-27T14:09:37;7.30;99.90
51914;DHT22;37940;53.002;6.930;2023-02-27T14:12:06;7.30;99.90
51914;DHT22;37940;53.002;6.930;2023-02-27T14:14:51;7.40;99.90
51914;DHT22;37940;53.002;6.930;2023-02-27T14:20:11;7.20;99.90
51914;DHT22;37940;53.002;6.930;2023-02-27T14:25:36;7.20;99.90
51914;DHT22;37940;53.002;6.930;2023-02-27T14:28:03;7.10;99.90
51914;DHT22;37940;53.002;6.930;2023-02-27T14:30:34;7.10;99.90
51914;DHT22;37940;53.002;6.930;2023-02-27T14:33:14;7.10;99.90
51914;DHT22;37940;53.002;6.930;2023-02-27T14:35:52;7.10;99.90
51914;DHT22;37940;53.002;6.930;2023-02-27T14:38:21;7.00;99.90
51914;DHT22;37940;53.002;6.930;2023-02-27T14:41:15;7.00;99.90
51914;DHT22;37940;53.002;6.930;2023-02-27T14:43:41;7.10;99.90
51914;DHT22;37940;53.002;6.930;2023-02-27T14:49:00;7.10;99.90
51914;DHT22;37940;53.002;6.930;2023-02-27T14:51:30;7.10;99.90
51914;DHT22;37940;53.002;6.930;2023-02-27T14:56:28;7.10;99.90
51914;DHT22;37940;53.002;6.930;2023-02-27T14:58:54;7.00;99.90
51914;DHT22;37940;53.002;6.930;2023-02-27T15:01:22;7.00;99.90
51914;DHT22;37940;53.002;6.930;2023-02-27T15:03:52;6.90;99.90
51914;DHT22;37940;53.002;6.930;2023-02-27T15:06:22;6.90;99.90
51914;DHT22;37940;53.002;6.930;2023-02-27T15:08:52;6.90;99.90
51914;DHT22;37940;53.002;6.930;2023-02-27T15:11:22;6.90;99.90
51914;DHT22;37940;53.002;6.930;2023-02-27T15:14:01;6.90;99.90
51914;DHT22;37940;53.002;6.930;2023-02-27T15:16:30;6.90;99.90
51914;DHT22;37940;53.002;6.930;2023-02-27T15:19:19;6.80;99.90
51914;DHT22;37940;53.002;6.930;2023-02-27T15:21:49;6.90;99.90
51914;DHT22;37940;53.002;6.930;2023-02-27T15:24:24;6.80;99.90
51914;DHT22;37940;53.002;6.930;2023-02-27T15:26:59;6.70;99.90
51914;DHT22;37940;53.002;6.930;2023-02-27T15:29:47;6.70;99.90
51914;DHT22;37940;53.002;6.930;2023-02-27T15:32:37;6.70;99.90
51914;DHT22;37940;53.002;6.930;2023-02-27T15:35:05;6.60;99.90
51914;DHT22;37940;53.002;6.930;2023-02-27T15:37:37;6.60;99.90
51914;DHT22;37940;53.002;6.930;2023-02-27T15:40:04;6.50;99.90
51914;DHT22;37940;53.002;6.930;2023-02-27T15:42:32;6.50;99.90
51914;DHT22;37940;53.002;6.930;2023-02-27T15:45:01;6.50;99.90
51914;DHT22;37940;53.002;6.930;2023-02-27T15:47:32;6.40;99.90
51914;DHT22;37940;53.002;6.930;2023-02-27T15:50:05;6.40;99.90
51914;DHT22;37940;53.002;6.930;2023-02-27T15:52:40;6.30;99.90
51914;DHT22;37940;53.002;6.930;2023-02-27T15:55:31;6.30;99.90
51914;DHT22;37940;53.002;6.930;2023-02-27T15:57:58;7.00;99.90
51914;DHT22;37940;53.002;6.930;2023-02-27T16:00:24;6.20;99.90
51914;DHT22;37940;53.002;6.930;2023-02-27T16:02:55;6.20;99.90
51914;DHT22;37940;53.002;6.930;2023-02-27T16:05:38;6.10;99.90
51914;DHT22;37940;53.002;6.930;2023-02-27T16:08:06;6.10;99.90
51914;DHT22;37940;53.002;6.930;2023-02-27T16:10:51;6.00;99.90
51914;DHT22;37940;53.002;6.930;2023-02-27T16:16:21;5.90;99.90
51914;DHT22;37940;53.002;6.930;2023-02-27T16:18:51;5.90;99.90
51914;DHT22;37940;53.002;6.930;2023-02-27T16:23:45;5.80;99.90
51914;DHT22;37940;53.002;6.930;2023-02-27T16:26:26;5.80;99.90
51914;DHT22;37940;53.002;6.930;2023-02-27T16:29:24;5.70;99.90
51914;DHT22;37940;53.002;6.930;2023-02-27T16:31:57;5.70;99.90
51914;DHT22;37940;53.002;6.930;2023-02-27T16:34:39;5.60;99.90
51914;DHT22;37940;53.002;6.930;2023-02-27T16:37:26;5.50;99.90
51914;DHT22;37940;53.002;6.930;2023-02-27T16:39:53;5.50;99.90
51914;DHT22;37940;53.002;6.930;2023-02-27T16:42:19;5.40;99.90
51914;DHT22;37940;53.002;6.930;2023-02-27T16:44:45;5.40;99.90
51914;DHT22;37940;53.002;6.930;2023-02-27T16:47:11;5.40;99.90
51914;DHT22;37940;53.002;6.930;2023-02-27T16:49:37;5.30;99.90
51914;DHT22;37940;53.002;6.930;2023-02-27T16:52:07;5.30;99.90
51914;DHT22;37940;53.002;6.930;2023-02-27T16:54:34;5.20;99.90
51914;DHT22;37940;53.002;6.930;2023-02-27T16:57:00;5.10;99.90
51914;DHT22;37940;53.002;6.930;2023-02-27T16:59:29;5.10;99.90
51914;DHT22;37940;53.002;6.930;2023-02-27T17:01:56;5.00;99.90
51914;DHT22;37940;53.002;6.930;2023-02-27T17:04:25;5.00;99.90
51914;DHT22;37940;53.002;6.930;2023-02-27T17:06:52;4.90;99.90
51914;DHT22;37940;53.002;6.930;2023-02-27T17:09:18;4.80;99.90
51914;DHT22;37940;53.002;6.930;2023-02-27T17:11:43;4.70;99.90
51914;DHT22;37940;53.002;6.930;2023-02-27T17:14:09;5.00;99.90
51914;DHT22;37940;53.002;6.930;2023-02-27T17:16:35;4.50;99.90
51914;DHT22;37940;53.002;6.930;2023-02-27T17:19:01;4.40;99.90
51914;DHT22;37940;53.002;6.930;2023-02-27T17:21:26;4.30;99.90
51914;DHT22;37940;53.002;6.930;2023-02-27T17:23:53;4.20;99.90
51914;DHT22;37940;53.002;6.930;2023-02-27T17:26:19;4.20;99.90
51914;DHT22;37940;53.002;6.930;2023-02-27T17:28:45;4.00;99.90
51914;DHT22;37940;53.002;6.930;2023-02-27T17:31:13;3.90;99.90
51914;DHT22;37940;53.002;6.930;2023-02-27T17:33:42;3.80;99.90
51914;DHT22;37940;53.002;6.930;2023-02-27T17:36:09;3.70;99.90
51914;DHT22;37940;53.002;6.930;2023-02-27T17:38:36;3.50;99.90
51914;DHT22;37940;53.002;6.930;2023-02-27T17:41:06;3.40;99.90
51914;DHT22;37940;53.002;6.930;2023-02-27T17:43:32;3.30;99.90
51914;DHT22;37940;53.002;6.930;2023-02-27T17:45:58;3.10;99.90
51914;DHT22;37940;53.002;6.930;2023-02-27T17:48:24;3.00;99.90
51914;DHT22;37940;53.002;6.930;2023-02-27T17:50:49;2.90;99.90
51914;DHT22;37940;53.002;6.930;2023-02-27T17:53:15;2.80;99.90
51914;DHT22;37940;53.002;6.930;2023-02-27T17:55:41;2.70;99.90
51914;DHT22;37940;53.002;6.930;2023-02-27T17:58:07;2.60;99.90
51914;DHT22;37940;53.002;6.930;2023-02-27T18:00:34;2.60;99.90
51914;DHT22;37940;53.002;6.930;2023-02-27T18:03:00;2.50;99.90
51914;DHT22;37940;53.002;6.930;2023-02-27T18:05:26;2.40;99.90
51914;DHT22;37940;53.002;6.930;2023-02-27T18:07:52;2.30;99.90
51914;DHT22;37940;53.002;6.930;2023-02-27T18:10:18;2.30;99.90
51914;DHT22;37940;53.002;6.930;2023-02-27T18:12:44;2.20;99.90
51914;DHT22;37940;53.002;6.930;2023-02-27T18:15:10;2.10;99.90
51914;DHT22;37940;53.002;6.930;2023-02-27T18:17:36;2.10;99.90
51914;DHT22;37940;53.002;6.930;2023-02-27T18:20:01;2.10;99.90
51914;DHT22;37940;53.002;6.930;2023-02-27T18:22:29;2.10;99.90
51914;DHT22;37940;53.002;6.930;2023-02-27T18:24:57;2.80;99.90
51914;DHT22;37940;53.002;6.930;2023-02-27T18:27:23;2.10;99.90
51914;DHT22;37940;53.002;6.930;2023-02-27T18:29:49;2.40;99.90
51914;DHT22;37940;53.002;6.930;2023-02-27T18:32:15;2.40;99.90
51914;DHT22;37940;53.002;6.930;2023-02-27T18:34:41;2.30;99.90
51914;DHT22;37940;53.002;6.930;2023-02-27T18:37:08;2.30;99.90
51914;DHT22;37940;53.002;6.930;2023-02-27T18:39:35;2.20;99.90
51914;DHT22;37940;53.002;6.930;2023-02-27T18:42:01;2.20;99.90
51914;DHT22;37940;53.002;6.930;2023-02-27T18:44:27;2.30;99.90
51914;DHT22;37940;53.002;6.930;2023-02-27T18:46:53;2.30;99.90
51914;DHT22;37940;53.002;6.930;2023-02-27T18:49:19;2.40;99.90
51914;DHT22;37940;53.002;6.930;2023-02-27T18:51:45;2.40;99.90
51914;DHT22;37940;53.002;6.930;2023-02-27T18:54:12;2.40;99.90
51914;DHT22;37940;53.002;6.930;2023-02-27T18:56:39;2.50;99.90
51914;DHT22;37940;53.002;6.930;2023-02-27T18:59:05;2.50;99.90
51914;DHT22;37940;53.002;6.930;2023-02-27T19:01:34;2.60;99.90
51914;DHT22;37940;53.002;6.930;2023-02-27T19:04:01;2.80;99.90
51914;DHT22;37940;53.002;6.930;2023-02-27T19:06:35;2.70;99.90
51914;DHT22;37940;53.002;6.930;2023-02-27T19:09:06;2.80;99.90
51914;DHT22;37940;53.002;6.930;2023-02-27T19:11:33;2.80;99.90
51914;DHT22;37940;53.002;6.930;2023-02-27T19:14:01;2.90;99.90
51914;DHT22;37940;53.002;6.930;2023-02-27T19:16:28;2.90;99.90